Time;durP1;ratioP1;P1;durP2;ratioP2;P2;SDS_P1;SDS_P2;PMS_P1;PMS_P2;Temp;Humidity;BMP_temperature;BMP_pressure;BME280_temperature;BME280_humidity;BME280_pressure;Samples;Min_cycle;Max_cycle;Signal;HPM_P1;HPM_P2
2021/05/27 00:00:06;;;;;;;6.63;4.00;;;12.10;80.30;;;;;;5034613;28;20025;-93
2021/05/27 00:02:32;;;;;;;8.25;4.88;;;12.10;80.30;;;;;;5008241;28;20507;-96
2021/05/27 00:04:57;;;;;;;10.00;5.03;;;12.10;80.90;;;;;;5029434;28;20033;-95
2021/05/27 00:07:23;;;;;;;6.25;4.10;;;12.10;80.20;;;;;;5034035;28;20040;-95
2021/05/27 00:09:49;;;;;;;7.20;5.18;;;12.10;80.20;;;;;;5030779;28;20022;-95
2021/05/27 00:12:14;;;;;;;9.82;5.22;;;12.10;80.10;;;;;;5007851;28;20060;-92
2021/05/27 00:14:40;;;;;;;13.00;5.82;;;12.10;80.10;;;;;;5023966;28;20025;-95
2021/05/27 00:17:06;;;;;;;9.90;5.35;;;12.10;80.10;;;;;;5022695;28;20033;-96
2021/05/27 00:19:31;;;;;;;10.93;5.35;;;12.00;81.00;;;;;;5033238;28;20013;-96
2021/05/27 00:21:57;;;;;;;10.80;5.55;;;11.90;80.50;;;;;;5018670;28;20052;-95
2021/05/27 00:24:23;;;;;;;13.27;4.75;;;11.90;80.70;;;;;;5008548;28;20024;-93
2021/05/27 00:26:48;;;;;;;5.43;3.10;;;11.90;80.80;;;;;;5014272;28;20071;-94
2021/05/27 00:29:14;;;;;;;10.55;5.40;;;11.90;80.70;;;;;;5023374;28;20025;-96
2021/05/27 00:31:40;;;;;;;9.00;4.75;;;11.90;80.60;;;;;;5030244;28;20048;-96
2021/05/27 00:34:05;;;;;;;9.77;5.40;;;11.90;80.80;;;;;;5023183;28;20010;-95
2021/05/27 00:36:31;;;;;;;8.48;4.63;;;11.80;80.90;;;;;;5031532;28;20684;-94
2021/05/27 00:38:57;;;;;;;8.85;4.30;;;11.70;81.00;;;;;;5007741;28;20013;-95
2021/05/27 00:41:23;;;;;;;9.50;4.47;;;11.80;81.20;;;;;;5021555;28;20449;-95
2021/05/27 00:43:48;;;;;;;8.38;4.35;;;11.70;81.20;;;;;;5026236;28;20017;-95
2021/05/27 00:46:14;;;;;;;15.82;5.57;;;11.70;81.20;;;;;;5034510;28;20029;-92
2021/05/27 00:51:25;;;;;;;8.45;4.53;;;11.70;81.30;;;;;;5031211;28;20044;-91
2021/05/27 00:53:51;;;;;;;8.65;5.05;;;11.70;81.40;;;;;;5004942;28;20019;-91
2021/05/27 00:56:17;;;;;;;9.65;4.88;;;11.60;81.40;;;;;;5025734;28;20517;-91
2021/05/27 00:58:43;;;;;;;10.57;5.40;;;11.60;81.40;;;;;;5020246;28;20022;-90
2021/05/27 01:01:09;;;;;;;10.60;4.88;;;11.60;81.50;;;;;;5025749;28;20068;-96
2021/05/27 01:03:35;;;;;;;10.07;5.00;;;11.60;81.60;;;;;;5040675;28;20013;-95
2021/05/27 01:06:01;;;;;;;8.15;4.80;;;11.50;81.60;;;;;;5041719;28;20030;-95
2021/05/27 01:08:29;;;;;;;6.53;3.72;;;11.50;81.60;;;;;;5033814;28;20017;-92
2021/05/27 01:10:55;;;;;;;10.38;4.63;;;11.50;81.70;;;;;;5016172;28;20069;-92
2021/05/27 01:13:21;;;;;;;7.07;4.07;;;11.50;81.60;;;;;;5016051;28;20029;-93
2021/05/27 01:15:48;;;;;;;6.38;4.07;;;11.50;81.70;;;;;;5016753;28;20029;-92
2021/05/27 01:18:18;;;;;;;11.18;5.78;;;11.50;81.60;;;;;;5041200;28;20021;-91
2021/05/27 01:20:47;;;;;;;10.43;5.10;;;11.50;81.70;;;;;;5042125;28;20055;-92
2021/05/27 01:23:13;;;;;;;9.48;4.97;;;11.40;81.80;;;;;;5026180;28;20095;-94
2021/05/27 01:25:41;;;;;;;5.68;3.40;;;11.40;82.00;;;;;;5044187;28;20057;-92
2021/05/27 01:28:07;;;;;;;8.45;4.45;;;11.40;82.10;;;;;;5038756;28;20464;-95
2021/05/27 01:30:32;;;;;;;12.73;4.80;;;11.30;82.10;;;;;;5033716;28;20049;-91
2021/05/27 01:32:58;;;;;;;9.25;4.10;;;11.40;82.30;;;;;;5033272;28;20021;-92
2021/05/27 01:35:25;;;;;;;8.88;4.38;;;11.40;82.40;;;;;;5032598;28;20037;-91
2021/05/27 01:37:51;;;;;;;8.93;4.50;;;11.30;82.40;;;;;;5032130;28;20025;-91
2021/05/27 01:40:20;;;;;;;6.63;4.07;;;11.30;82.50;;;;;;5034365;28;20022;-92
2021/05/27 01:42:45;;;;;;;8.20;4.47;;;11.30;82.50;;;;;;5016337;28;20030;-92
2021/05/27 01:45:12;;;;;;;6.35;3.60;;;11.40;82.50;;;;;;5015013;28;20021;-92
2021/05/27 01:47:38;;;;;;;7.88;3.70;;;11.30;82.50;;;;;;5031863;28;20013;-91
2021/05/27 01:50:07;;;;;;;7.28;3.55;;;11.30;82.50;;;;;;5032392;28;20037;-90
2021/05/27 01:52:32;;;;;;;6.85;3.72;;;11.30;82.50;;;;;;5031441;28;20028;-90
2021/05/27 01:54:58;;;;;;;8.27;3.83;;;11.30;82.40;;;;;;5032323;28;20400;-89
2021/05/27 01:57:23;;;;;;;5.72;3.13;;;11.30;82.50;;;;;;5031979;28;20728;-91
2021/05/27 01:59:49;;;;;;;9.55;3.95;;;11.30;82.50;;;;;;5031983;28;20052;-91
2021/05/27 02:02:14;;;;;;;4.85;3.15;;;11.30;82.50;;;;;;5014614;28;20025;-90
2021/05/27 02:04:40;;;;;;;7.35;4.30;;;11.30;82.60;;;;;;5032057;28;20029;-91
2021/05/27 02:07:12;;;;;;;8.27;4.00;;;11.30;82.60;;;;;;5032126;28;20029;-90
2021/05/27 02:09:38;;;;;;;7.05;3.58;;;11.20;82.50;;;;;;5031391;28;20038;-91
2021/05/27 02:12:05;;;;;;;5.68;3.50;;;11.20;83.20;;;;;;5032436;28;20476;-93
2021/05/27 02:14:30;;;;;;;7.57;3.88;;;11.20;82.50;;;;;;5032442;28;20028;-92
2021/05/27 02:16:56;;;;;;;7.10;3.67;;;11.30;82.60;;;;;;5032362;28;20387;-93
2021/05/27 02:19:22;;;;;;;6.20;3.70;;;11.20;82.40;;;;;;5031572;28;20083;-92
2021/05/27 02:21:48;;;;;;;5.70;3.35;;;11.30;82.50;;;;;;5032272;28;20021;-92
2021/05/27 02:24:13;;;;;;;8.88;4.80;;;11.30;82.50;;;;;;5032452;28;20025;-92
2021/05/27 02:26:39;;;;;;;7.22;3.85;;;11.20;82.70;;;;;;5031981;28;20021;-93
2021/05/27 02:29:05;;;;;;;6.55;3.95;;;11.20;82.80;;;;;;5031301;28;20502;-92
2021/05/27 02:31:31;;;;;;;9.52;5.78;;;11.20;82.80;;;;;;5031303;28;20550;-92
2021/05/27 02:33:57;;;;;;;8.25;3.85;;;11.20;83.10;;;;;;5030871;28;20065;-93
2021/05/27 02:36:23;;;;;;;6.78;3.92;;;11.20;83.10;;;;;;5031193;28;20037;-93
2021/05/27 02:38:50;;;;;;;6.70;3.80;;;11.20;83.00;;;;;;5030146;28;20028;-93
2021/05/27 02:41:16;;;;;;;5.93;3.55;;;11.20;83.10;;;;;;5032063;28;20060;-94
2021/05/27 02:43:41;;;;;;;4.55;3.20;;;11.20;83.10;;;;;;5014375;28;20045;-93
2021/05/27 02:46:07;;;;;;;5.22;3.53;;;11.20;82.90;;;;;;5032599;28;20506;-95
2021/05/27 02:48:33;;;;;;;8.13;4.00;;;11.10;83.00;;;;;;5014341;28;20079;-96
2021/05/27 02:51:00;;;;;;;4.30;2.58;;;11.10;83.20;;;;;;5032186;28;20032;-95
2021/05/27 02:53:26;;;;;;;5.85;3.15;;;11.20;83.20;;;;;;5032049;28;20022;-95
2021/05/27 02:55:52;;;;;;;6.68;3.55;;;11.20;83.20;;;;;;5031778;28;20380;-96
2021/05/27 02:58:18;;;;;;;6.15;3.05;;;11.20;83.20;;;;;;5031989;28;20457;-96
2021/05/27 03:00:44;;;;;;;7.75;3.35;;;11.20;83.20;;;;;;5031732;28;20026;-95
2021/05/27 03:03:10;;;;;;;6.53;3.58;;;11.20;83.10;;;;;;5014475;28;20060;-94
2021/05/27 03:05:36;;;;;;;6.40;4.10;;;11.10;83.10;;;;;;5032075;28;20067;-95
2021/05/27 03:08:01;;;;;;;6.07;4.00;;;11.10;83.50;;;;;;5024030;28;20029;-94
2021/05/27 03:10:27;;;;;;;8.57;4.50;;;11.10;83.30;;;;;;5020746;28;20030;-93
2021/05/27 03:12:53;;;;;;;7.18;4.13;;;11.10;83.30;;;;;;5016820;28;20026;-90
2021/05/27 03:15:19;;;;;;;5.05;3.17;;;11.00;83.40;;;;;;5034612;28;20105;-90
2021/05/27 03:17:44;;;;;;;6.30;3.90;;;11.00;83.40;;;;;;5022794;28;20022;-92
2021/05/27 03:20:11;;;;;;;5.95;3.35;;;11.10;83.50;;;;;;5032188;28;20010;-91
2021/05/27 03:22:37;;;;;;;7.93;3.95;;;11.10;83.50;;;;;;5003924;28;20049;-91
2021/05/27 03:25:04;;;;;;;6.00;3.17;;;11.10;83.50;;;;;;5033896;28;20021;-90
2021/05/27 03:27:30;;;;;;;6.40;4.50;;;11.10;83.50;;;;;;5034222;28;20025;-91
2021/05/27 03:29:55;;;;;;;9.35;4.00;;;11.00;83.50;;;;;;5014160;28;20392;-92
2021/05/27 03:32:21;;;;;;;5.85;3.47;;;11.00;83.80;;;;;;5019490;28;20021;-93
2021/05/27 03:34:46;;;;;;;6.85;3.58;;;11.00;83.70;;;;;;5017218;28;20476;-90
2021/05/27 03:37:12;;;;;;;6.13;3.58;;;11.00;83.70;;;;;;5034412;28;20112;-91
2021/05/27 03:39:37;;;;;;;7.95;3.90;;;11.00;84.00;;;;;;5034342;28;20623;-91
2021/05/27 03:42:03;;;;;;;5.78;3.22;;;11.00;83.80;;;;;;5017166;28;20049;-92
2021/05/27 03:44:29;;;;;;;5.88;3.17;;;11.00;83.70;;;;;;5034798;28;20048;-91
2021/05/27 03:46:54;;;;;;;8.07;4.15;;;11.00;83.70;;;;;;5035142;28;20148;-95
2021/05/27 03:49:20;;;;;;;6.15;3.38;;;11.00;83.70;;;;;;5017653;28;20021;-93
2021/05/27 03:51:45;;;;;;;5.40;3.67;;;11.10;83.70;;;;;;5021651;28;20064;-88
2021/05/27 03:54:11;;;;;;;5.50;3.38;;;11.10;83.70;;;;;;5026446;28;20125;-88
2021/05/27 03:56:37;;;;;;;5.90;3.55;;;11.10;83.70;;;;;;5028161;28;20048;-87
2021/05/27 04:01:47;;;;;;;6.03;3.42;;;11.10;83.60;;;;;;5032571;28;20051;-90
2021/05/27 04:09:31;;;;;;;5.68;3.38;;;11.00;83.70;;;;;;5031419;28;20041;-89
2021/05/27 04:14:42;;;;;;;6.13;3.45;;;11.00;83.70;;;;;;5033432;28;20087;-89
2021/05/27 04:17:08;;;;;;;4.00;2.53;;;11.10;83.80;;;;;;5032380;28;20033;-90
2021/05/27 04:19:34;;;;;;;5.63;2.92;;;11.10;83.70;;;;;;5022891;28;20027;-90
2021/05/27 04:21:59;;;;;;;4.97;2.67;;;11.10;83.70;;;;;;5025284;28;20029;-87
2021/05/27 04:24:25;;;;;;;5.80;3.38;;;11.10;83.70;;;;;;5032195;28;20037;-88
2021/05/27 04:26:51;;;;;;;6.18;3.70;;;11.10;83.80;;;;;;5018958;28;20033;-88
2021/05/27 04:29:16;;;;;;;6.55;3.28;;;11.10;83.90;;;;;;5031936;28;20551;-89
2021/05/27 04:31:42;;;;;;;4.43;2.85;;;11.10;83.90;;;;;;5014373;28;20512;-91
2021/05/27 04:34:08;;;;;;;6.68;3.47;;;11.00;83.90;;;;;;5017679;28;20117;-89
2021/05/27 04:36:33;;;;;;;4.97;2.55;;;11.10;84.00;;;;;;5015098;28;20056;-89
2021/05/27 04:38:59;;;;;;;5.07;3.10;;;11.00;84.00;;;;;;5019065;28;20140;-91
2021/05/27 04:41:24;;;;;;;7.15;3.10;;;11.10;84.20;;;;;;5033732;28;20022;-91
2021/05/27 04:43:53;;;;;;;6.60;3.05;;;11.10;84.20;;;;;;5027758;28;20022;-92
2021/05/27 04:46:19;;;;;;;6.10;3.53;;;11.10;84.10;;;;;;5022674;28;20111;-89
2021/05/27 04:48:45;;;;;;;6.88;3.05;;;11.00;84.00;;;;;;5026196;28;20113;-90
2021/05/27 04:51:10;;;;;;;6.15;3.30;;;11.00;84.10;;;;;;5037086;28;20029;-90
2021/05/27 04:53:36;;;;;;;4.55;2.53;;;11.00;84.10;;;;;;5032293;28;20021;-90
2021/05/27 04:56:04;;;;;;;4.95;3.08;;;11.10;84.00;;;;;;5042802;28;20447;-90
2021/05/27 04:58:30;;;;;;;3.63;2.10;;;11.10;84.00;;;;;;5020685;28;20477;-91
2021/05/27 05:00:56;;;;;;;3.28;2.13;;;11.10;84.00;;;;;;5021511;28;20053;-90
2021/05/27 05:03:22;;;;;;;5.22;3.03;;;11.10;83.90;;;;;;5036074;28;20028;-92
2021/05/27 05:05:48;;;;;;;5.75;3.42;;;11.10;83.80;;;;;;5032201;28;20029;-91
2021/05/27 05:08:13;;;;;;;4.60;3.00;;;11.10;83.90;;;;;;5032485;28;20063;-90
2021/05/27 05:10:41;;;;;;;4.15;2.78;;;11.10;84.00;;;;;;5033427;28;20033;-93
2021/05/27 05:13:06;;;;;;;5.22;2.88;;;11.10;83.90;;;;;;5015752;28;20515;-92
2021/05/27 05:15:38;;;;;;;4.32;2.40;;;11.20;83.90;;;;;;5031335;28;20033;-93
2021/05/27 05:18:09;;;;;;;4.00;2.20;;;11.20;83.90;;;;;;5015223;28;20031;-93
2021/05/27 05:20:39;;;;;;;5.60;2.63;;;11.20;83.90;;;;;;5033841;28;20156;-93
2021/05/27 05:23:05;;;;;;;4.47;2.63;;;11.20;83.80;;;;;;5033332;28;20032;-93
2021/05/27 05:25:36;;;;;;;3.47;2.30;;;11.20;83.90;;;;;;5025774;28;20036;-95
2021/05/27 05:28:03;;;;;;;4.43;3.13;;;11.20;84.00;;;;;;5010450;28;20033;-92
2021/05/27 05:30:30;;;;;;;5.38;3.15;;;11.20;84.00;;;;;;5012668;28;20029;-91
2021/05/27 05:33:04;;;;;;;4.85;2.58;;;11.20;84.10;;;;;;5002942;28;20076;-91
2021/05/27 05:35:30;;;;;;;6.07;2.78;;;11.20;84.00;;;;;;5014451;28;20618;-92
2021/05/27 05:37:56;;;;;;;6.10;3.60;;;11.20;83.80;;;;;;5031839;28;20022;-93
2021/05/27 05:40:23;;;;;;;5.00;2.40;;;11.20;83.80;;;;;;5027346;28;20028;-90
2021/05/27 05:42:50;;;;;;;5.47;2.83;;;11.20;83.80;;;;;;5032295;28;20053;-89
2021/05/27 05:45:17;;;;;;;6.05;2.60;;;11.20;83.70;;;;;;5013190;28;20064;-89
2021/05/27 05:47:47;;;;;;;7.13;2.95;;;11.20;83.80;;;;;;5026912;28;20022;-90
2021/05/27 05:50:14;;;;;;;4.90;3.05;;;11.20;83.80;;;;;;5029050;28;20036;-90
2021/05/27 05:52:40;;;;;;;4.18;2.78;;;11.20;83.80;;;;;;5026026;28;20029;-87
2021/05/27 05:55:06;;;;;;;6.50;3.53;;;11.30;83.90;;;;;;5027790;28;20380;-89
2021/05/27 05:57:32;;;;;;;4.55;2.63;;;11.20;83.80;;;;;;5024516;28;20056;-89
2021/05/27 05:59:58;;;;;;;4.70;2.42;;;11.30;83.80;;;;;;5028626;28;20533;-89
2021/05/27 06:02:23;;;;;;;5.03;3.00;;;11.30;83.90;;;;;;5031082;28;20549;-89
2021/05/27 06:04:49;;;;;;;4.85;2.95;;;11.30;83.80;;;;;;5031632;28;20488;-90
2021/05/27 06:07:15;;;;;;;6.70;3.38;;;11.30;83.80;;;;;;5007217;28;20045;-92
2021/05/27 06:09:40;;;;;;;6.82;3.05;;;11.30;83.80;;;;;;5031870;28;20096;-93
2021/05/27 06:12:06;;;;;;;5.63;2.92;;;11.30;83.80;;;;;;5008390;28;20088;-92
2021/05/27 06:14:33;;;;;;;6.18;3.50;;;11.30;83.80;;;;;;5023784;28;20128;-92
2021/05/27 06:16:58;;;;;;;4.50;2.58;;;11.30;83.80;;;;;;5015158;28;20033;-91
2021/05/27 06:19:24;;;;;;;7.00;2.88;;;11.30;83.90;;;;;;5026553;28;20037;-91
2021/05/27 06:21:50;;;;;;;4.88;2.38;;;11.30;83.80;;;;;;5011617;28;20053;-92
2021/05/27 06:24:16;;;;;;;4.97;2.80;;;11.30;83.80;;;;;;5010370;28;20033;-90
2021/05/27 06:26:41;;;;;;;4.35;2.75;;;11.30;83.70;;;;;;5032399;28;20030;-93
2021/05/27 06:29:07;;;;;;;7.53;3.92;;;11.30;83.80;;;;;;5031812;28;20051;-94
2021/05/27 06:31:32;;;;;;;4.88;2.90;;;11.30;83.70;;;;;;5036230;28;20104;-94
2021/05/27 06:33:58;;;;;;;5.70;2.90;;;11.30;83.80;;;;;;5010902;28;20040;-92
2021/05/27 06:36:24;;;;;;;7.13;3.45;;;11.30;83.80;;;;;;5040338;28;20123;-96
2021/05/27 06:38:49;;;;;;;6.82;3.47;;;11.30;83.70;;;;;;5034993;28;20017;-96
2021/05/27 06:41:19;;;;;;;6.07;3.22;;;11.30;83.80;;;;;;5126701;22;20040;-91
2021/05/27 06:43:51;;;;;;;5.85;3.08;;;11.20;83.90;;;;;;5023799;28;20021;-93
2021/05/27 06:46:19;;;;;;;3.80;2.22;;;11.20;84.00;;;;;;5043480;28;20032;-89
2021/05/27 06:48:44;;;;;;;5.35;2.88;;;11.30;84.00;;;;;;5041541;28;20025;-90
2021/05/27 06:51:12;;;;;;;7.88;3.53;;;11.30;84.00;;;;;;5030601;28;20086;-90
2021/05/27 06:53:38;;;;;;;6.38;2.88;;;11.30;84.00;;;;;;5023535;28;20030;-93
2021/05/27 06:56:03;;;;;;;7.13;3.20;;;11.30;83.90;;;;;;5034191;28;20777;-92
2021/05/27 06:58:29;;;;;;;5.43;2.63;;;11.30;83.80;;;;;;5013428;28;20037;-91
2021/05/27 07:00:55;;;;;;;4.13;2.85;;;11.30;83.80;;;;;;5034575;28;20729;-92
2021/05/27 07:03:22;;;;;;;6.07;3.50;;;11.40;83.80;;;;;;5037176;28;20037;-92
2021/05/27 07:05:52;;;;;;;6.75;3.00;;;11.40;83.70;;;;;;5020093;28;20131;-96
2021/05/27 07:08:18;;;;;;;8.70;3.90;;;11.40;83.70;;;;;;5018026;28;20045;-95
2021/05/27 07:10:45;;;;;;;7.80;3.88;;;11.40;83.80;;;;;;5034085;28;20468;-96
2021/05/27 07:13:11;;;;;;;5.85;3.33;;;11.40;83.80;;;;;;5018406;28;20073;-93
2021/05/27 07:15:38;;;;;;;8.27;3.40;;;11.40;83.90;;;;;;5035234;28;20026;-92
2021/05/27 07:18:11;;;;;;;6.75;2.90;;;11.40;83.90;;;;;;5042613;28;20026;-95
2021/05/27 07:20:39;;;;;;;5.65;2.80;;;11.40;83.90;;;;;;5037526;28;20033;-96
2021/05/27 07:23:05;;;;;;;7.63;3.60;;;11.40;83.80;;;;;;5041872;28;20029;-96
2021/05/27 07:25:31;;;;;;;7.22;3.35;;;11.40;83.70;;;;;;5039515;28;20361;-95
2021/05/27 07:27:57;;;;;;;5.28;2.78;;;11.50;83.80;;;;;;5040858;28;20040;-94
2021/05/27 07:30:26;;;;;;;6.72;2.88;;;11.50;83.70;;;;;;5048379;28;20044;-94
2021/05/27 07:32:53;;;;;;;6.40;3.03;;;11.50;84.30;;;;;;5046884;28;20560;-93
2021/05/27 07:35:19;;;;;;;6.00;3.00;;;11.40;83.60;;;;;;5046275;28;20026;-95
2021/05/27 07:37:44;;;;;;;5.57;2.83;;;11.40;83.80;;;;;;5030481;28;20052;-95
2021/05/27 07:40:11;;;;;;;5.47;2.60;;;11.50;83.90;;;;;;5037572;28;20475;-92
2021/05/27 07:42:38;;;;;;;6.10;2.50;;;11.50;83.70;;;;;;5040725;28;20124;-95
2021/05/27 07:45:05;;;;;;;5.30;2.67;;;11.50;83.70;;;;;;5038592;28;20045;-93
2021/05/27 07:47:32;;;;;;;5.05;2.60;;;11.50;83.20;;;;;;5038105;28;20083;-96
2021/05/27 07:50:00;;;;;;;6.82;3.10;;;11.50;83.70;;;;;;5022179;28;20044;-96
2021/05/27 07:52:27;;;;;;;4.43;2.50;;;11.50;83.70;;;;;;5039288;28;20095;-94
2021/05/27 07:54:53;;;;;;;4.35;2.78;;;11.50;84.30;;;;;;5036974;28;20518;-92
2021/05/27 07:57:22;;;;;;;6.75;3.10;;;11.50;83.70;;;;;;5036225;28;20095;-91
2021/05/27 07:59:47;;;;;;;4.57;2.65;;;11.40;83.60;;;;;;5031576;28;20105;-95
2021/05/27 08:02:19;;;;;;;4.85;2.85;;;11.40;83.80;;;;;;5032874;28;20103;-92
2021/05/27 08:04:45;;;;;;;5.65;2.97;;;11.50;83.80;;;;;;5027830;28;20044;-93
2021/05/27 08:07:14;;;;;;;5.20;2.75;;;11.50;83.80;;;;;;5031772;28;20026;-93
2021/05/27 08:09:40;;;;;;;7.57;2.63;;;11.50;83.80;;;;;;5033765;28;20184;-86
2021/05/27 08:12:07;;;;;;;5.68;2.90;;;11.50;83.80;;;;;;5011312;28;20140;-89
2021/05/27 08:14:35;;;;;;;5.32;2.67;;;11.50;83.70;;;;;;5034355;28;20021;-95
2021/05/27 08:17:03;;;;;;;6.13;2.65;;;11.50;83.70;;;;;;5025107;28;20033;-93
2021/05/27 08:19:28;;;;;;;6.90;3.17;;;11.50;83.80;;;;;;5029218;28;20059;-89
2021/05/27 08:21:54;;;;;;;8.90;3.53;;;11.50;83.70;;;;;;5033600;28;20027;-90
2021/05/27 08:24:20;;;;;;;6.70;3.00;;;11.50;83.60;;;;;;5032228;28;20038;-92
2021/05/27 08:26:46;;;;;;;5.85;2.92;;;11.50;83.80;;;;;;5018992;28;20067;-92
2021/05/27 08:29:11;;;;;;;6.03;2.70;;;11.50;83.80;;;;;;5037390;28;20025;-92
2021/05/27 08:31:40;;;;;;;8.52;3.33;;;11.50;83.90;;;;;;5020455;28;20121;-92
2021/05/27 08:34:10;;;;;;;6.82;2.75;;;11.50;83.80;;;;;;5021203;28;20497;-91
2021/05/27 08:36:38;;;;;;;5.95;2.88;;;11.60;83.80;;;;;;5019085;28;20038;-92
2021/05/27 08:39:05;;;;;;;6.35;2.90;;;11.60;83.70;;;;;;5045429;28;20017;-91
2021/05/27 08:41:31;;;;;;;5.00;2.78;;;11.70;83.70;;;;;;5018698;28;20033;-91
2021/05/27 08:44:01;;;;;;;5.03;2.90;;;11.70;83.60;;;;;;5039557;28;20534;-92
2021/05/27 08:46:27;;;;;;;4.65;2.50;;;11.80;83.50;;;;;;5020084;28;20044;-93
2021/05/27 08:48:53;;;;;;;5.50;2.80;;;11.90;83.30;;;;;;5032564;28;20204;-92
2021/05/27 08:51:21;;;;;;;8.88;3.78;;;11.90;83.20;;;;;;5031295;28;20319;-91
2021/05/27 08:53:50;;;;;;;6.75;3.00;;;11.90;83.10;;;;;;5014457;28;20049;-93
2021/05/27 08:56:16;;;;;;;5.35;3.00;;;11.90;83.40;;;;;;5034268;28;20092;-95
2021/05/27 08:58:42;;;;;;;5.53;3.08;;;12.00;83.10;;;;;;5033572;28;20021;-93
2021/05/27 09:01:08;;;;;;;3.88;2.70;;;12.20;83.00;;;;;;5018782;28;20543;-92
2021/05/27 09:03:44;;;;;;;5.95;3.20;;;12.30;82.80;;;;;;5029571;28;20365;-91
2021/05/27 09:06:11;;;;;;;8.13;4.30;;;12.40;82.70;;;;;;5015046;28;20032;-93
2021/05/27 09:08:38;;;;;;;9.27;4.15;;;12.40;82.60;;;;;;5030544;28;20055;-90
2021/05/27 09:11:13;;;;;;;4.90;2.60;;;12.40;82.70;;;;;;5033958;28;20017;-91
2021/05/27 09:13:56;;;;;;;6.28;2.80;;;12.50;82.70;;;;;;5012274;28;20097;-95
2021/05/27 09:16:24;;;;;;;7.53;4.38;;;12.50;82.50;;;;;;5031753;28;20646;-95
2021/05/27 09:18:53;;;;;;;9.30;4.38;;;12.50;82.30;;;;;;5010327;28;20507;-96
2021/05/27 09:21:50;;;;;;;9.98;4.88;;;12.40;82.40;;;;;;5013936;28;20061;-96
2021/05/27 09:27:14;;;;;;;7.22;3.10;;;12.30;82.60;;;;;;5148371;23;20045;-95
2021/05/27 09:29:44;;;;;;;7.85;3.60;;;12.30;82.70;;;;;;5012892;28;20024;-95
2021/05/27 09:32:12;;;;;;;6.65;3.28;;;12.30;82.70;;;;;;5035681;28;20037;-96
2021/05/27 09:34:52;;;;;;;5.53;2.67;;;12.30;82.60;;;;;;5025039;28;20040;-96
2021/05/27 09:37:30;;;;;;;5.10;2.75;;;12.30;82.70;;;;;;5030124;28;20853;-96
2021/05/27 09:40:02;;;;;;;6.25;3.30;;;12.30;82.60;;;;;;5026048;28;20030;-96
2021/05/27 09:42:28;;;;;;;5.23;3.00;;;12.30;82.60;;;;;;5006028;28;20025;-96
2021/05/27 09:45:32;;;;;;;5.55;3.17;;;12.30;82.60;;;;;;5004945;28;20283;-96
2021/05/27 09:48:22;;;;;;;6.78;3.50;;;12.30;82.60;;;;;;5026359;28;20121;-94
2021/05/27 09:50:48;;;;;;;9.80;3.65;;;12.30;82.50;;;;;;5008736;28;20041;-93
2021/05/27 09:53:17;;;;;;;10.25;4.68;;;12.30;82.60;;;;;;5007351;28;20562;-94
2021/05/27 09:55:43;;;;;;;8.23;3.67;;;12.30;82.60;;;;;;5017447;28;20467;-94
2021/05/27 09:58:20;;;;;;;9.50;4.32;;;12.30;82.60;;;;;;5003197;28;20072;-95
2021/05/27 10:00:49;;;;;;;9.13;3.92;;;12.30;82.50;;;;;;5029956;28;20037;-96
2021/05/27 10:03:28;;;;;;;7.72;3.85;;;12.30;82.50;;;;;;5038206;28;20025;-96
2021/05/27 10:05:56;;;;;;;11.50;4.70;;;12.30;82.50;;;;;;5020886;28;20029;-96
2021/05/27 10:08:23;;;;;;;9.77;4.65;;;12.30;82.60;;;;;;5026325;28;20029;-96
2021/05/27 10:10:50;;;;;;;8.95;3.88;;;12.30;82.50;;;;;;5032900;28;20022;-95
2021/05/27 10:13:21;;;;;;;10.80;4.72;;;12.30;82.40;;;;;;5037097;28;20022;-96
2021/05/27 10:15:47;;;;;;;8.93;4.38;;;12.30;82.50;;;;;;5008973;28;20022;-96
2021/05/27 10:18:22;;;;;;;7.70;4.00;;;12.20;82.60;;;;;;5032527;28;20633;-96
2021/05/27 10:20:53;;;;;;;11.00;4.93;;;12.30;82.60;;;;;;5028275;28;20049;-95
2021/05/27 10:23:23;;;;;;;8.68;4.32;;;12.30;82.60;;;;;;5029998;28;20033;-94
2021/05/27 10:25:53;;;;;;;15.95;6.35;;;12.30;82.60;;;;;;5027762;28;20034;-96
2021/05/27 10:28:26;;;;;;;12.75;5.63;;;12.20;82.50;;;;;;5011670;28;20018;-95
2021/05/27 10:30:56;;;;;;;10.60;5.13;;;12.20;82.50;;;;;;5014326;28;20112;-96
2021/05/27 10:33:24;;;;;;;8.52;5.20;;;12.30;82.60;;;;;;5038350;28;20713;-94
2021/05/27 10:35:54;;;;;;;8.30;4.32;;;12.30;82.60;;;;;;5011807;28;20033;-95
2021/05/27 10:38:39;;;;;;;8.05;4.22;;;12.40;82.50;;;;;;5019849;28;20017;-92
2021/05/27 10:41:21;;;;;;;8.80;4.93;;;12.50;82.30;;;;;;5023663;28;20057;-93
2021/05/27 10:44:15;;;;;;;10.85;4.75;;;12.50;82.00;;;;;;5009306;28;20025;-95
2021/05/27 10:46:44;;;;;;;8.95;4.50;;;12.50;81.90;;;;;;5016039;28;20036;-92
2021/05/27 10:49:32;;;;;;;8.43;4.40;;;12.50;82.10;;;;;;5012146;28;20033;-96
2021/05/27 10:52:26;;;;;;;11.40;4.70;;;12.50;82.10;;;;;;5017937;28;20048;-94
2021/05/27 10:54:52;;;;;;;8.85;4.45;;;12.60;82.40;;;;;;5029125;28;20076;-94
2021/05/27 10:57:39;;;;;;;9.55;4.68;;;12.50;82.20;;;;;;5030877;28;20460;-93
2021/05/27 11:00:17;;;;;;;8.45;4.35;;;12.50;82.40;;;;;;5017354;28;20044;-92
2021/05/27 11:02:44;;;;;;;9.20;5.03;;;12.40;82.40;;;;;;5016559;28;20034;-95
2021/05/27 11:05:17;;;;;;;7.00;3.90;;;12.40;82.60;;;;;;5006968;28;20021;-96
2021/05/27 11:08:25;;;;;;;8.15;4.28;;;12.40;82.90;;;;;;5027511;28;20072;-94
2021/05/27 11:10:50;;;;;;;5.85;3.90;;;12.40;82.80;;;;;;5033333;28;20045;-91
2021/05/27 11:13:16;;;;;;;5.97;3.47;;;12.30;82.90;;;;;;5017835;28;20033;-92
2021/05/27 11:16:05;;;;;;;8.55;4.22;;;12.30;83.10;;;;;;5006765;28;20048;-91
2021/05/27 11:18:37;;;;;;;9.18;4.38;;;12.40;83.00;;;;;;5020281;28;20644;-93
2021/05/27 11:21:31;;;;;;;10.05;5.93;;;12.40;83.00;;;;;;5019185;28;20574;-90
2021/05/27 11:27:24;;;;;;;8.52;4.43;;;12.40;83.00;;;;;;5029063;28;20419;-89
2021/05/27 11:30:18;;;;;;;5.30;3.70;;;12.50;82.90;;;;;;5034332;28;20075;-92
2021/05/27 11:32:46;;;;;;;9.32;4.10;;;12.50;82.70;;;;;;5002432;28;20049;-92
2021/05/27 11:35:12;;;;;;;7.28;4.18;;;12.60;82.70;;;;;;5028115;28;20029;-92
2021/05/27 11:37:40;;;;;;;6.93;3.88;;;12.60;82.60;;;;;;5027214;28;21598;-88
2021/05/27 11:40:13;;;;;;;6.95;4.32;;;12.60;82.60;;;;;;5028678;28;20017;-90
2021/05/27 11:42:56;;;;;;;7.47;3.97;;;12.60;82.80;;;;;;5035474;28;20025;-93
2021/05/27 11:45:25;;;;;;;4.40;3.03;;;12.60;82.90;;;;;;5032875;28;20029;-95
2021/05/27 11:50:40;;;;;;;5.40;3.45;;;13.00;82.60;;;;;;5037237;28;20131;-93
2021/05/27 11:53:06;;;;;;;3.97;2.70;;;13.20;82.30;;;;;;5037086;28;20033;-94
2021/05/27 11:55:37;;;;;;;5.55;2.60;;;13.30;81.90;;;;;;5017211;28;20113;-94
2021/05/27 11:58:04;;;;;;;5.03;3.25;;;13.50;81.70;;;;;;5024380;28;20034;-92
2021/05/27 12:00:31;;;;;;;6.95;3.58;;;13.60;81.40;;;;;;5010103;28;20028;-93
2021/05/27 12:03:00;;;;;;;6.15;3.38;;;13.50;81.30;;;;;;5009945;28;20457;-94
2021/05/27 12:05:27;;;;;;;6.68;3.30;;;13.40;81.20;;;;;;5006697;28;20022;-92
2021/05/27 12:08:04;;;;;;;5.20;2.65;;;13.50;81.30;;;;;;5031086;28;20044;-92
2021/05/27 12:10:38;;;;;;;6.28;3.33;;;13.40;81.30;;;;;;5026424;28;20057;-93
2021/05/27 12:13:16;;;;;;;8.63;3.80;;;13.40;81.30;;;;;;5037048;28;20064;-92
2021/05/27 12:15:42;;;;;;;6.85;3.42;;;13.40;81.50;;;;;;5018958;28;20021;-94
2021/05/27 12:18:14;;;;;;;3.92;2.42;;;13.30;81.50;;;;;;5035553;28;20503;-90
2021/05/27 12:20:47;;;;;;;4.82;2.70;;;13.30;81.70;;;;;;5029774;28;20028;-95
2021/05/27 12:23:16;;;;;;;4.85;2.83;;;13.30;81.80;;;;;;5029107;28;20103;-95
2021/05/27 12:25:43;;;;;;;5.72;2.80;;;13.30;81.70;;;;;;5010990;28;20102;-95
2021/05/27 12:28:26;;;;;;;5.15;2.63;;;13.30;81.80;;;;;;5027490;28;20491;-94
2021/05/27 12:30:57;;;;;;;4.72;2.63;;;13.30;81.80;;;;;;5005631;28;20022;-93
2021/05/27 12:33:32;;;;;;;7.22;3.00;;;13.30;81.80;;;;;;5009433;28;20022;-93
2021/05/27 12:36:04;;;;;;;4.47;2.28;;;13.40;81.80;;;;;;5015258;28;20038;-94
2021/05/27 12:38:30;;;;;;;4.40;2.65;;;13.60;81.80;;;;;;5032589;28;20029;-93
2021/05/27 12:41:01;;;;;;;5.63;3.15;;;13.80;81.40;;;;;;5025957;28;20044;-95
2021/05/27 12:43:36;;;;;;;5.78;3.15;;;13.90;81.00;;;;;;5026912;28;20067;-95
2021/05/27 12:46:05;;;;;;;5.70;2.33;;;14.00;80.70;;;;;;5009208;28;20021;-95
2021/05/27 12:48:33;;;;;;;6.20;2.90;;;14.10;80.40;;;;;;5028980;28;20116;-92
2021/05/27 12:51:07;;;;;;;6.47;2.95;;;14.10;80.30;;;;;;5029846;28;20021;-91
2021/05/27 12:53:37;;;;;;;5.18;2.50;;;14.10;80.20;;;;;;5008605;28;20026;-91
2021/05/27 12:56:30;;;;;;;4.50;2.80;;;14.10;80.10;;;;;;5007406;28;20029;-93
2021/05/27 12:59:16;;;;;;;;;;;14.00;80.10;;;;;;5031532;28;20040;-91
2021/05/27 13:01:57;;;;;;;4.10;2.30;;;13.90;80.20;;;;;;5133693;27;20391;-91
2021/05/27 13:04:33;;;;;;;4.50;2.17;;;13.90;80.30;;;;;;5125991;28;20031;-96
2021/05/27 13:07:14;;;;;;;4.88;2.05;;;14.00;80.30;;;;;;5130662;28;20075;-96
2021/05/27 13:09:54;;;;;;;8.13;2.40;;;13.90;80.10;;;;;;5710942;22;20050;-96
2021/05/27 13:12:21;;;;;;;4.70;1.83;;;13.90;80.00;;;;;;5048626;28;20037;-96
2021/05/27 13:15:06;;;;;;;5.32;2.00;;;13.80;80.00;;;;;;5038565;28;20020;-96